createdAt,value
2023-04-13T00:01:27.635Z,0.60
2023-04-13T00:03:58.166Z,0.50
2023-04-13T00:06:26.515Z,0.50
2023-04-13T00:08:54.919Z,0.65
2023-04-13T00:11:23.052Z,0.55
2023-04-13T00:13:53.401Z,0.57
2023-04-13T00:16:21.398Z,0.50
2023-04-13T00:18:49.779Z,0.60
2023-04-13T00:21:19.589Z,0.50
2023-04-13T00:23:47.974Z,0.50
2023-04-13T00:26:15.882Z,0.40
2023-04-13T00:28:43.781Z,0.43
2023-04-13T00:31:12.182Z,0.47
2023-04-13T00:33:41.455Z,0.63
2023-04-13T00:36:10.162Z,0.55
2023-04-13T00:38:39.933Z,0.50
2023-04-13T00:41:08.884Z,0.50
2023-04-13T00:43:36.832Z,0.52
2023-04-13T00:46:05.280Z,0.47
2023-04-13T00:48:34.436Z,0.50
2023-04-13T00:51:02.732Z,0.60
2023-04-13T00:53:31.973Z,0.50
2023-04-13T00:56:01.572Z,0.70
2023-04-13T00:58:29.536Z,0.45
2023-04-13T01:00:57.953Z,0.70
2023-04-13T01:03:27.358Z,0.50
2023-04-13T01:06:11.904Z,0.40
2023-04-13T01:08:45.595Z,0.40
2023-04-13T01:11:24.597Z,0.60
2023-04-13T01:14:00.899Z,0.50
2023-04-13T01:16:35.030Z,0.50
2023-04-13T01:19:06.041Z,0.50
2023-04-13T01:21:34.889Z,0.80
2023-04-13T01:24:17.912Z,0.50
2023-04-13T01:26:55.412Z,0.63
2023-04-13T01:29:25.916Z,0.50
2023-04-13T01:31:55.513Z,0.45
2023-04-13T01:34:24.304Z,0.60
2023-04-13T01:36:52.563Z,0.60
2023-04-13T01:39:20.953Z,0.80
2023-04-13T01:41:49.176Z,0.60
2023-04-13T01:44:17.190Z,0.70
2023-04-13T01:46:50.739Z,0.50
2023-04-13T01:49:21.617Z,0.60
2023-04-13T01:51:53.405Z,0.60
2023-04-13T01:54:27.292Z,0.63
2023-04-13T01:57:00.050Z,0.57
2023-04-13T01:59:28.150Z,0.70
2023-04-13T02:01:58.678Z,0.70
2023-04-13T02:04:26.814Z,0.60
2023-04-13T02:06:54.791Z,0.80
2023-04-13T02:09:22.699Z,0.60
2023-04-13T02:11:50.844Z,0.60
2023-04-13T02:14:18.809Z,0.70
2023-04-13T02:16:46.841Z,0.60
2023-04-13T02:19:16.196Z,0.50
2023-04-13T02:21:44.114Z,0.60
2023-04-13T02:24:11.994Z,0.60
2023-04-13T02:26:40.620Z,0.70
2023-04-13T02:29:08.996Z,0.80
2023-04-13T02:31:37.536Z,0.60
2023-04-13T02:34:06.257Z,0.60
2023-04-13T02:36:35.686Z,0.77
2023-04-13T02:39:04.075Z,0.50
2023-04-13T02:41:32.060Z,0.70
2023-04-13T02:44:00.103Z,0.65
2023-04-13T02:46:30.052Z,0.70
2023-04-13T02:49:00.158Z,0.60
2023-04-13T02:51:28.588Z,0.80
2023-04-13T02:53:58.191Z,0.70
2023-04-13T02:56:28.409Z,0.80
2023-04-13T02:58:56.919Z,0.50
2023-04-13T03:01:25.398Z,0.50
2023-04-13T03:03:53.430Z,0.70
2023-04-13T03:06:22.842Z,0.70
2023-04-13T03:08:51.358Z,0.55
2023-04-13T03:11:23.520Z,0.50
2023-04-13T03:13:54.154Z,0.63
2023-04-13T03:16:22.227Z,0.88
2023-04-13T03:18:51.518Z,0.60
2023-04-13T03:21:19.590Z,0.57
2023-04-13T03:23:47.512Z,0.50
2023-04-13T03:26:15.548Z,0.90
2023-04-13T03:28:44.876Z,0.90
2023-04-13T03:31:13.082Z,0.80
2023-04-13T03:33:41.143Z,0.60
2023-04-13T03:36:11.043Z,0.70
2023-04-13T03:38:38.959Z,0.50
2023-04-13T03:41:07.645Z,0.80
2023-04-13T03:43:36.058Z,0.85
2023-04-13T03:46:05.799Z,0.70
2023-04-13T03:48:33.818Z,0.50
2023-04-13T03:51:01.760Z,0.60
2023-04-13T03:53:29.708Z,0.80
2023-04-13T03:55:57.676Z,0.70
2023-04-13T03:58:25.789Z,0.60
2023-04-13T04:00:53.953Z,1.02
2023-04-13T04:03:25.413Z,0.82
2023-04-13T04:05:53.482Z,0.70
2023-04-13T04:08:21.437Z,0.68
2023-04-13T04:10:49.325Z,0.70
2023-04-13T04:13:17.237Z,1.05
2023-04-13T04:15:45.360Z,0.80
2023-04-13T04:18:13.346Z,0.88
2023-04-13T04:20:42.696Z,0.90
2023-04-13T04:23:12.483Z,0.70
2023-04-13T04:25:40.736Z,1.00
2023-04-13T04:28:09.378Z,0.70
2023-04-13T04:30:37.381Z,0.80
2023-04-13T04:33:05.431Z,1.02
2023-04-13T04:35:43.199Z,0.80
2023-04-13T04:38:12.534Z,1.10
2023-04-13T04:40:45.068Z,1.02
2023-04-13T04:43:14.710Z,1.00
2023-04-13T04:45:43.642Z,1.00
2023-04-13T04:48:12.358Z,0.80
2023-04-13T04:50:44.749Z,1.02
2023-04-13T04:53:14.107Z,1.00
2023-04-13T04:55:42.057Z,0.73
2023-04-13T04:58:10.162Z,0.90
2023-04-13T05:00:38.199Z,1.15
2023-04-13T05:03:07.893Z,1.00
2023-04-13T05:05:36.044Z,1.73
2023-04-13T05:08:04.121Z,1.15
2023-04-13T05:10:33.437Z,1.00
2023-04-13T05:13:01.866Z,1.10
2023-04-13T05:15:29.843Z,0.90
2023-04-13T05:17:57.858Z,1.10
2023-04-13T05:20:28.069Z,1.15
2023-04-13T05:22:56.016Z,1.30
2023-04-13T05:25:23.960Z,1.20
2023-04-13T05:27:53.249Z,1.10
2023-04-13T05:30:22.014Z,0.93
2023-04-13T05:32:49.947Z,1.15
2023-04-13T05:35:17.907Z,1.40
2023-04-13T05:37:46.788Z,1.30
2023-04-13T05:40:15.399Z,1.40
2023-04-13T05:42:43.972Z,1.08
2023-04-13T05:45:16.994Z,1.20
2023-04-13T05:47:45.736Z,1.40
2023-04-13T05:50:14.084Z,1.25
2023-04-13T05:52:42.021Z,1.45
2023-04-13T05:55:11.661Z,1.40
2023-04-13T05:57:40.025Z,1.50
2023-04-13T06:00:10.401Z,1.30
2023-04-13T06:02:41.986Z,1.48
2023-04-13T06:05:13.668Z,1.00
2023-04-13T06:07:44.577Z,1.00
2023-04-13T06:10:12.873Z,1.05
2023-04-13T06:12:41.272Z,1.17
2023-04-13T06:15:10.350Z,0.93
2023-04-13T06:17:39.837Z,1.10
2023-04-13T06:20:10.584Z,1.30
2023-04-13T06:22:38.577Z,1.02
2023-04-13T06:25:08.463Z,1.30
2023-04-13T06:27:36.576Z,1.00
2023-04-13T06:30:05.119Z,0.98
2023-04-13T06:32:33.069Z,1.38
2023-04-13T06:35:03.264Z,1.42
2023-04-13T06:37:31.260Z,0.90
2023-04-13T06:39:59.266Z,1.40
2023-04-13T06:42:27.175Z,1.10
2023-04-13T06:44:55.253Z,0.90
2023-04-13T06:47:23.191Z,1.20
2023-04-13T06:49:51.382Z,1.25
2023-04-13T06:52:20.957Z,1.25
2023-04-13T06:54:48.913Z,1.15
2023-04-13T06:57:18.762Z,0.95
2023-04-13T06:59:46.661Z,1.02
2023-04-13T07:02:14.752Z,0.95
2023-04-13T07:04:42.968Z,0.90
2023-04-13T07:07:12.038Z,1.00
2023-04-13T07:09:41.513Z,1.27
2023-04-13T07:12:09.577Z,1.25
2023-04-13T07:14:39.449Z,2.17
2023-04-13T07:17:07.853Z,1.58
2023-04-13T07:19:37.305Z,1.10
2023-04-13T07:22:05.411Z,1.08
2023-04-13T07:24:35.941Z,1.20
2023-04-13T07:27:05.410Z,1.00
2023-04-13T07:29:33.608Z,1.10
2023-04-13T07:32:02.640Z,1.40
2023-04-13T07:34:32.016Z,1.00
2023-04-13T07:37:02.207Z,0.88
2023-04-13T07:39:30.170Z,1.13
2023-04-13T07:41:58.087Z,1.35
2023-04-13T07:44:27.549Z,1.08
2023-04-13T07:46:56.913Z,1.10
2023-04-13T07:49:24.984Z,1.00
2023-04-13T07:51:54.980Z,1.38
2023-04-13T07:54:23.188Z,1.52
2023-04-13T07:56:51.244Z,1.30
2023-04-13T07:59:19.198Z,1.10
2023-04-13T08:01:48.660Z,2.30
2023-04-13T08:04:18.205Z,1.58
2023-04-13T08:06:46.239Z,1.33
2023-04-13T08:09:14.211Z,1.60
2023-04-13T08:11:44.129Z,1.70
2023-04-13T08:14:12.128Z,1.42
2023-04-13T08:16:40.126Z,1.45
2023-04-13T08:19:09.497Z,1.63
2023-04-13T08:21:38.693Z,1.30
2023-04-13T08:24:07.481Z,1.30
2023-04-13T08:26:35.669Z,1.50
2023-04-13T08:29:03.691Z,1.08
2023-04-13T08:31:32.420Z,1.38
2023-04-13T08:34:00.442Z,1.58
2023-04-13T08:36:29.746Z,1.00
2023-04-13T08:38:57.949Z,1.38
2023-04-13T08:41:28.085Z,1.40
2023-04-13T08:43:57.061Z,1.27
2023-04-13T08:46:25.204Z,1.50
2023-04-13T08:48:55.259Z,1.52
2023-04-13T08:51:23.956Z,1.40
2023-04-13T08:53:56.191Z,1.40
2023-04-13T08:56:37.687Z,1.58
2023-04-13T08:59:15.432Z,1.80
2023-04-13T09:01:47.367Z,8.20
2023-04-13T09:04:19.031Z,2.70
2023-04-13T09:06:50.271Z,8.82
2023-04-13T09:09:20.648Z,2.17
2023-04-13T09:11:51.424Z,6.50
2023-04-13T09:14:22.030Z,4.50
2023-04-13T09:16:50.498Z,2.38
2023-04-13T09:19:29.516Z,7.93
2023-04-13T09:21:57.662Z,1.48
2023-04-13T09:24:27.230Z,1.58
2023-04-13T09:26:55.213Z,1.65
2023-04-13T09:29:23.658Z,1.58
2023-04-13T09:31:51.613Z,1.40
2023-04-13T09:34:28.377Z,1.50
2023-04-13T09:36:58.663Z,1.60
2023-04-13T09:39:29.645Z,1.50
2023-04-13T09:41:58.175Z,1.35
2023-04-13T09:44:28.573Z,1.50
2023-04-13T09:47:00.173Z,1.98
2023-04-13T09:49:38.374Z,1.70
2023-04-13T09:52:07.487Z,1.40
2023-04-13T09:54:37.123Z,1.52
2023-04-13T09:57:05.783Z,1.63
2023-04-13T09:59:34.850Z,1.38
2023-04-13T10:02:05.266Z,1.58
2023-04-13T10:04:35.746Z,1.10
2023-04-13T10:07:04.904Z,1.40
2023-04-13T10:09:32.845Z,1.20
2023-04-13T10:12:02.269Z,1.60
2023-04-13T10:14:34.799Z,1.65
2023-04-13T10:17:37.443Z,1.52
2023-04-13T10:20:12.718Z,1.30
2023-04-13T10:22:44.077Z,1.45
2023-04-13T10:25:25.604Z,1.30
2023-04-13T10:28:02.002Z,1.50
2023-04-13T10:30:30.090Z,1.65
2023-04-13T10:33:06.179Z,1.50
2023-04-13T10:35:38.961Z,1.33
2023-04-13T10:38:09.089Z,1.60
2023-04-13T10:40:44.333Z,1.25
2023-04-13T10:43:13.737Z,1.42
2023-04-13T10:45:41.710Z,1.13
2023-04-13T10:48:22.257Z,0.90
2023-04-13T10:50:59.134Z,1.55
2023-04-13T10:53:30.360Z,1.20
2023-04-13T10:55:58.616Z,1.50
2023-04-13T10:58:32.515Z,1.15
2023-04-13T11:01:01.058Z,1.33
2023-04-13T11:03:29.911Z,1.08
2023-04-13T11:05:59.428Z,1.00
2023-04-13T11:08:28.124Z,1.55
2023-04-13T11:10:57.399Z,1.10
2023-04-13T11:13:29.111Z,1.10
2023-04-13T11:16:03.873Z,1.20
2023-04-13T11:18:32.169Z,1.50
2023-04-13T11:21:00.129Z,1.40
2023-04-13T11:23:28.791Z,1.70
2023-04-13T11:25:59.375Z,1.40
2023-04-13T11:28:39.444Z,1.70
2023-04-13T11:31:08.164Z,1.30
2023-04-13T11:33:39.428Z,1.60
2023-04-13T11:36:09.625Z,1.40
2023-04-13T11:38:42.127Z,1.63
2023-04-13T11:43:43.154Z,1.40
2023-04-13T11:46:13.574Z,1.77
2023-04-13T11:48:42.163Z,1.48
2023-04-13T11:51:11.341Z,1.38
2023-04-13T11:53:40.381Z,1.50
2023-04-13T11:56:09.018Z,1.20
2023-04-13T11:58:38.681Z,1.27
2023-04-13T12:01:14.377Z,1.70
2023-04-13T12:04:01.103Z,1.90
2023-04-13T12:06:34.010Z,8.75
2023-04-13T12:09:10.031Z,2.67
2023-04-13T12:11:43.877Z,2.28
2023-04-13T12:14:49.751Z,1.70
2023-04-13T12:19:46.644Z,1.80
2023-04-13T12:22:15.237Z,1.60
2023-04-13T12:24:43.306Z,1.52
2023-04-13T12:29:44.791Z,1.60
2023-04-13T12:32:17.481Z,1.88
2023-04-13T12:34:45.513Z,2.20
2023-04-13T12:37:13.663Z,1.65
2023-04-13T12:39:43.244Z,1.90
2023-04-13T12:42:12.361Z,1.90
2023-04-13T12:44:40.560Z,1.95
2023-04-13T12:47:08.620Z,1.90
2023-04-13T12:49:37.992Z,1.85
2023-04-13T12:52:06.182Z,1.95
2023-04-13T12:54:34.138Z,2.70
2023-04-13T12:57:02.535Z,2.60
2023-04-13T12:59:30.518Z,1.90
2023-04-13T13:01:58.504Z,2.20
2023-04-13T13:04:30.086Z,3.67
2023-04-13T13:07:00.428Z,2.30
2023-04-13T13:09:28.539Z,1.35
2023-04-13T13:11:57.312Z,1.83
2023-04-13T13:14:26.735Z,0.90
2023-04-13T13:16:54.837Z,0.80
2023-04-13T13:19:22.892Z,0.88
2023-04-13T13:21:50.899Z,0.80
2023-04-13T13:24:20.425Z,1.10
2023-04-13T13:27:14.171Z,1.00
2023-04-13T13:29:37.305Z,1.00
2023-04-13T13:32:05.959Z,1.40
2023-04-13T13:34:34.025Z,1.27
2023-04-13T13:37:01.948Z,1.00
2023-04-13T13:39:32.120Z,1.23
2023-04-13T13:42:00.201Z,0.98
2023-04-13T13:44:28.306Z,1.00
2023-04-13T13:46:56.309Z,1.25
2023-04-13T13:49:24.739Z,1.00
2023-04-13T13:51:54.070Z,1.10
2023-04-13T13:54:22.826Z,1.10
2023-04-13T13:56:52.432Z,0.90
2023-04-13T13:59:20.636Z,1.00
2023-04-13T14:01:48.757Z,0.90
2023-04-13T14:04:16.791Z,1.00
2023-04-13T14:06:44.691Z,1.10
2023-04-13T14:09:12.704Z,1.05
2023-04-13T14:11:40.796Z,1.02
2023-04-13T14:14:20.663Z,0.90
2023-04-13T14:16:50.233Z,0.80
2023-04-13T14:19:20.603Z,0.90
2023-04-13T14:21:48.978Z,3.42
2023-04-13T14:24:17.158Z,1.48
2023-04-13T14:26:45.138Z,1.40
2023-04-13T14:29:14.445Z,0.90
2023-04-13T14:31:42.520Z,0.82
2023-04-13T14:34:10.540Z,0.65
2023-04-13T14:36:39.143Z,0.63
2023-04-13T14:39:07.659Z,0.68
2023-04-13T14:41:36.567Z,1.70
2023-04-13T14:44:04.537Z,1.55
2023-04-13T14:46:34.246Z,0.70
2023-04-13T14:49:02.489Z,1.00
2023-04-13T14:51:35.209Z,1.40
2023-04-13T14:54:03.193Z,1.25
2023-04-13T14:56:31.295Z,1.10
2023-04-13T14:58:59.393Z,0.77
2023-04-13T15:01:27.684Z,0.55
2023-04-13T15:03:57.537Z,0.50
2023-04-13T15:06:27.328Z,0.68
2023-04-13T15:08:55.582Z,0.50
2023-04-13T15:11:23.722Z,0.52
2023-04-13T15:13:51.761Z,1.25
2023-04-13T15:16:19.710Z,0.60
2023-04-13T15:18:47.692Z,1.00
2023-04-13T15:21:17.059Z,1.88
2023-04-13T15:23:45.115Z,3.47
2023-04-13T15:26:18.184Z,1.70
2023-04-13T15:28:46.379Z,1.00
2023-04-13T15:31:14.341Z,1.00
2023-04-13T15:33:42.925Z,1.40
2023-04-13T15:36:14.268Z,1.08
2023-04-13T15:38:43.658Z,0.90
2023-04-13T15:41:11.959Z,1.10
2023-04-13T15:43:41.214Z,0.70
2023-04-13T15:46:09.473Z,0.70
2023-04-13T15:48:37.546Z,0.70
2023-04-13T15:51:05.983Z,0.60
2023-04-13T15:53:33.973Z,0.80
2023-04-13T15:56:03.400Z,1.35
2023-04-13T15:58:31.401Z,0.80
2023-04-13T16:01:03.653Z,0.98
2023-04-13T16:03:32.548Z,0.82
2023-04-13T16:06:00.920Z,0.80
2023-04-13T16:08:29.625Z,1.00
2023-04-13T16:10:57.828Z,0.90
2023-04-13T16:13:41.510Z,0.60
2023-04-13T16:16:17.685Z,0.50
2023-04-13T16:18:45.726Z,0.60
2023-04-13T16:21:19.135Z,0.70
2023-04-13T16:23:47.731Z,0.70
2023-04-13T16:26:15.671Z,0.70
2023-04-13T16:28:44.986Z,0.73
2023-04-13T16:31:13.024Z,1.33
2023-04-13T16:33:40.984Z,2.70
2023-04-13T16:36:09.844Z,2.00
2023-04-13T16:38:39.962Z,1.02
2023-04-13T16:41:08.131Z,0.60
2023-04-13T16:43:36.139Z,1.17
2023-04-13T16:46:06.181Z,2.30
2023-04-13T16:48:34.130Z,1.27
2023-04-13T16:51:03.380Z,14.27
2023-04-13T16:53:32.104Z,13.88
2023-04-13T16:55:59.994Z,3.15
2023-04-13T16:58:28.017Z,5.90
2023-04-13T17:00:56.072Z,2.75
2023-04-13T17:03:25.761Z,2.97
2023-04-13T17:05:54.957Z,1.80
2023-04-13T17:08:23.637Z,3.03
2023-04-13T17:10:52.379Z,4.10
2023-04-13T17:13:20.310Z,1.33
2023-04-13T17:15:48.273Z,1.45
2023-04-13T17:18:16.316Z,1.30
2023-04-13T17:20:45.633Z,1.98
2023-04-13T17:23:13.652Z,1.70
2023-04-13T17:25:41.984Z,1.58
2023-04-13T17:28:09.985Z,1.77
2023-04-13T17:30:38.029Z,1.15
2023-04-13T17:33:06.102Z,1.60
2023-04-13T17:35:34.084Z,1.65
2023-04-13T17:38:03.461Z,1.73
2023-04-13T17:40:31.601Z,2.05
2023-04-13T17:42:59.571Z,2.60
2023-04-13T17:45:27.571Z,2.20
2023-04-13T17:47:55.607Z,1.60
2023-04-13T17:50:23.836Z,1.50
2023-04-13T17:52:51.751Z,5.45
2023-04-13T17:55:21.094Z,1.92
2023-04-13T17:57:49.132Z,1.55
2023-04-13T18:00:17.938Z,1.10
2023-04-13T18:02:50.154Z,0.90
2023-04-13T18:05:18.407Z,1.20
2023-04-13T18:07:46.707Z,1.70
2023-04-13T18:10:14.965Z,1.17
2023-04-13T18:12:44.301Z,1.70
2023-04-13T18:15:12.542Z,0.60
2023-04-13T18:17:40.884Z,1.60
2023-04-13T18:20:10.081Z,1.20
2023-04-13T18:22:38.085Z,1.10
2023-04-13T18:25:06.676Z,0.95
2023-04-13T18:27:34.720Z,1.10
2023-04-13T18:30:04.293Z,1.00
2023-04-13T18:32:32.213Z,1.00
2023-04-13T18:35:00.385Z,1.00
2023-04-13T18:37:28.386Z,4.25
2023-04-13T18:39:57.681Z,7.47
2023-04-13T18:42:25.726Z,1.40
2023-04-13T18:44:53.950Z,4.68
2023-04-13T18:47:24.247Z,2.63
2023-04-13T18:49:52.332Z,11.73
2023-04-13T18:52:20.630Z,3.90
2023-04-13T18:54:48.668Z,7.15
2023-04-13T18:57:16.702Z,3.60
2023-04-13T18:59:45.273Z,2.30
2023-04-13T19:02:15.111Z,3.05
2023-04-13T19:04:44.742Z,2.80
2023-04-13T19:07:12.719Z,3.00
2023-04-13T19:09:41.018Z,3.15
2023-04-13T19:12:09.315Z,3.17
2023-04-13T19:14:37.311Z,3.35
2023-04-13T19:17:05.674Z,4.03
2023-04-13T19:19:33.795Z,5.10
2023-04-13T19:22:03.187Z,4.18
2023-04-13T19:24:31.524Z,1.85
2023-04-13T19:26:59.545Z,7.13
2023-04-13T19:29:30.240Z,8.00
2023-04-13T19:31:58.395Z,4.00
2023-04-13T19:34:26.516Z,2.50
2023-04-13T19:36:54.488Z,2.10
2023-04-13T19:39:23.773Z,2.15
2023-04-13T19:41:51.840Z,5.32
2023-04-13T19:44:19.822Z,2.30
2023-04-13T19:46:47.987Z,2.97
2023-04-13T19:49:16.053Z,2.38
2023-04-13T19:51:44.062Z,3.13
2023-04-13T19:54:12.412Z,3.33
2023-04-13T19:56:42.292Z,2.03
2023-04-13T19:59:10.476Z,1.33
2023-04-13T20:01:40.533Z,3.03
2023-04-13T20:04:09.135Z,6.47
2023-04-13T20:06:37.213Z,6.13
2023-04-13T20:09:09.517Z,2.97
2023-04-13T20:11:37.432Z,3.85
2023-04-13T20:14:06.773Z,4.85
2023-04-13T20:16:35.555Z,5.85
2023-04-13T20:19:03.966Z,5.00
2023-04-13T20:21:33.044Z,6.40
2023-04-13T20:24:01.387Z,8.52
2023-04-13T20:26:31.836Z,5.90
2023-04-13T20:29:01.174Z,7.75
2023-04-13T20:31:31.846Z,8.88
2023-04-13T20:34:00.621Z,5.68
2023-04-13T20:36:28.837Z,17.83
2023-04-13T20:38:59.387Z,7.50
2023-04-13T20:41:29.835Z,14.15
2023-04-13T20:43:58.730Z,17.48
2023-04-13T20:46:33.835Z,11.00
2023-04-13T20:49:05.147Z,7.22
2023-04-13T20:51:34.111Z,5.63
2023-04-13T20:54:05.471Z,5.43
2023-04-13T20:56:33.582Z,6.80
2023-04-13T20:59:02.484Z,3.97
2023-04-13T21:01:31.761Z,2.35
2023-04-13T21:04:00.403Z,2.45
2023-04-13T21:06:30.234Z,4.18
2023-04-13T21:08:59.032Z,4.10
2023-04-13T21:11:27.385Z,4.88
2023-04-13T21:13:55.443Z,4.80
2023-04-13T21:16:25.544Z,3.28
2023-04-13T21:18:53.584Z,3.53
2023-04-13T21:21:23.403Z,4.18
2023-04-13T21:23:53.541Z,3.22
2023-04-13T21:26:21.859Z,2.90
2023-04-13T21:28:49.919Z,3.35
2023-04-13T21:31:17.947Z,2.78
2023-04-13T21:33:46.643Z,2.45
2023-04-13T21:38:45.507Z,3.30
2023-04-13T21:41:18.890Z,3.00
2023-04-13T21:43:47.460Z,3.20
2023-04-13T21:46:16.690Z,2.97
2023-04-13T21:48:44.651Z,2.90
2023-04-13T21:51:12.660Z,2.47
2023-04-13T21:53:40.628Z,2.10
2023-04-13T21:56:08.974Z,2.20
2023-04-13T21:58:42.516Z,2.10
2023-04-13T22:01:10.842Z,2.40
2023-04-13T22:03:40.153Z,2.40
2023-04-13T22:06:10.946Z,2.60
2023-04-13T22:08:39.684Z,2.90
2023-04-13T22:11:08.016Z,3.33
2023-04-13T22:13:36.043Z,3.20
2023-04-13T22:16:05.736Z,3.70
2023-04-13T22:18:33.758Z,3.10
2023-04-13T22:21:01.660Z,3.55
2023-04-13T22:23:30.628Z,4.22
2023-04-13T22:26:01.366Z,4.53
2023-04-13T22:28:32.414Z,5.10
2023-04-13T22:31:08.686Z,4.88
2023-04-13T22:33:37.822Z,3.97
2023-04-13T22:36:06.975Z,3.30
2023-04-13T22:38:35.035Z,4.05
2023-04-13T22:41:07.535Z,4.60
2023-04-13T22:43:35.443Z,4.20
2023-04-13T22:46:03.587Z,3.90
2023-04-13T22:48:33.066Z,3.97
2023-04-13T22:51:02.196Z,3.80
2023-04-13T22:53:30.473Z,3.25
2023-04-13T22:55:59.246Z,3.00
2023-04-13T22:58:27.487Z,2.70
2023-04-13T23:00:55.688Z,2.60
2023-04-13T23:03:23.892Z,2.40
2023-04-13T23:05:53.602Z,2.38
2023-04-13T23:08:21.521Z,2.83
2023-04-13T23:10:49.578Z,2.92
2023-04-13T23:13:17.564Z,2.97
2023-04-13T23:15:45.533Z,3.17
2023-04-13T23:18:13.444Z,3.13
2023-04-13T23:20:41.456Z,2.85
2023-04-13T23:23:11.061Z,3.47
2023-04-13T23:25:39.182Z,3.03
2023-04-13T23:28:07.146Z,2.95
2023-04-13T23:30:35.259Z,2.92
2023-04-13T23:33:03.359Z,2.80
2023-04-13T23:35:31.636Z,2.20
2023-04-13T23:38:00.947Z,2.80
2023-04-13T23:40:30.393Z,2.72
2023-04-13T23:42:58.501Z,2.65
2023-04-13T23:45:28.534Z,3.05
2023-04-13T23:47:57.080Z,2.78
2023-04-13T23:50:25.058Z,2.88
2023-04-13T23:52:53.052Z,2.92
2023-04-13T23:55:21.197Z,2.58
2023-04-13T23:57:50.803Z,2.72
